Briefing drone pour Le puy-en-velay (LFHP)

Rechercher une autre localisation

Conditions de vol :


Nous sommes le : Dimanche 25 juillet 2021
Il est 16:07 UTC (18:07 LT)

Lever de soleil : 03:56 UTC (05:56 LT)
Coucher de soleil : 19:45 UTC (21:45 LT)

Météo

L'essentiel des conditions de vol

VIGILANCE MÉTÉO FRANCE - Haute-Loire (43)
Pas de vigilances particulieres
METAR de LFHP
LFHP 141630Z AUTO 31010KT 9999 FEW019 BKN029 BKN035 14/11 Q1020

Date d'émission: 14/07/2021
Heure d'émission: 16:30 UTC
Vent: 310° pour 10 KT (19 km/h)
Visibilité horizontale: > 10 km
Plafond :
- Peu de nuages à 1900ft (579m)
- Nuages morcelés à 2900ft (884m)
- Nuages morcelés à 3500ft (1067m)
Température: 14 °C
Point de rosée: 11 °C
Humidité: 82%
Pression (QNH): 1020 hPa
Prévision 24h pour Le puy-en-velay
Vent : 319° pour 2 KT (6 km/h)
Temperature Maxi: 24 °C
Temperature Min: 24 °C
Humidité : 39%
Condition : Couvert



Warning: count(): Parameter must be an array or an object that implements Countable in /homepages/6/d509196549/htdocs/droneoxygene/briefing.php on line 743
WEBCAM POUR LE PUY-EN-VELAY

Réglementation

Voler en sécurité

CARTES AERONAUTIQUE 1/500.000
CARTES VAC (LFHP)
SUP AIP




Chargement des AIP...
NOTAM (LE PUY-EN-VELAY + Terrain à proximité / FIR )




Chargement des NOTAMS...
CONTACT PREFECTURE 43


Avertissement : Les données mises à disposition sont indicatives. Oxygène Drone ne pourra être tenu responsable de dégâts causés aux biens et aux personnes.